sensor_id;sensor_type;location;lat;lon;timestamp;temperature;humidity
16118;DHT22;8163;50.118;5.342;2022-07-24T00:01:55;20.90;70.50
16118;DHT22;8163;50.118;5.342;2022-07-24T00:04:22;20.90;70.50
16118;DHT22;8163;50.118;5.342;2022-07-24T00:06:49;20.90;70.50
16118;DHT22;8163;50.118;5.342;2022-07-24T00:09:17;20.90;70.50
16118;DHT22;8163;50.118;5.342;2022-07-24T00:11:44;20.90;70.50
16118;DHT22;8163;50.118;5.342;2022-07-24T00:14:12;20.80;70.40
16118;DHT22;8163;50.118;5.342;2022-07-24T00:16:39;20.80;70.40
16118;DHT22;8163;50.118;5.342;2022-07-24T00:19:06;20.80;70.40
16118;DHT22;8163;50.118;5.342;2022-07-24T00:21:34;20.80;70.40
16118;DHT22;8163;50.118;5.342;2022-07-24T00:24:01;20.80;70.50
16118;DHT22;8163;50.118;5.342;2022-07-24T00:26:30;20.70;70.60
16118;DHT22;8163;50.118;5.342;2022-07-24T00:28:57;20.70;70.70
16118;DHT22;8163;50.118;5.342;2022-07-24T00:31:24;20.70;70.80
16118;DHT22;8163;50.118;5.342;2022-07-24T00:33:51;20.70;70.80
16118;DHT22;8163;50.118;5.342;2022-07-24T00:36:19;20.60;71.60
16118;DHT22;8163;50.118;5.342;2022-07-24T00:38:46;20.50;70.90
16118;DHT22;8163;50.118;5.342;2022-07-24T00:41:13;20.50;71.00
16118;DHT22;8163;50.118;5.342;2022-07-24T00:44:04;20.40;71.20
16118;DHT22;8163;50.118;5.342;2022-07-24T00:46:31;20.40;71.60
16118;DHT22;8163;50.118;5.342;2022-07-24T00:48:58;20.40;71.50
16118;DHT22;8163;50.118;5.342;2022-07-24T00:51:26;20.40;71.60
16118;DHT22;8163;50.118;5.342;2022-07-24T00:53:54;20.30;71.50
16118;DHT22;8163;50.118;5.342;2022-07-24T00:56:21;20.20;71.70
16118;DHT22;8163;50.118;5.342;2022-07-24T00:58:49;20.20;71.90
16118;DHT22;8163;50.118;5.342;2022-07-24T01:01:18;20.10;72.20
16118;DHT22;8163;50.118;5.342;2022-07-24T01:03:46;20.10;72.50
16118;DHT22;8163;50.118;5.342;2022-07-24T01:06:14;20.10;72.50
16118;DHT22;8163;50.118;5.342;2022-07-24T01:08:42;20.00;72.60
16118;DHT22;8163;50.118;5.342;2022-07-24T01:11:10;19.90;72.70
16118;DHT22;8163;50.118;5.342;2022-07-24T01:13:38;19.90;73.00
16118;DHT22;8163;50.118;5.342;2022-07-24T01:16:06;19.80;73.10
16118;DHT22;8163;50.118;5.342;2022-07-24T01:18:39;19.80;73.30
16118;DHT22;8163;50.118;5.342;2022-07-24T01:21:09;19.70;73.40
16118;DHT22;8163;50.118;5.342;2022-07-24T01:23:40;19.70;73.60
16118;DHT22;8163;50.118;5.342;2022-07-24T01:26:08;19.60;73.70
16118;DHT22;8163;50.118;5.342;2022-07-24T01:28:37;19.70;74.00
16118;DHT22;8163;50.118;5.342;2022-07-24T01:31:04;19.70;74.10
16118;DHT22;8163;50.118;5.342;2022-07-24T01:33:31;19.60;74.20
16118;DHT22;8163;50.118;5.342;2022-07-24T01:35:58;19.60;74.20
16118;DHT22;8163;50.118;5.342;2022-07-24T01:38:27;19.60;74.40
16118;DHT22;8163;50.118;5.342;2022-07-24T01:40:55;19.50;74.60
16118;DHT22;8163;50.118;5.342;2022-07-24T01:43:22;19.50;74.60
16118;DHT22;8163;50.118;5.342;2022-07-24T01:45:49;19.50;74.60
16118;DHT22;8163;50.118;5.342;2022-07-24T01:48:16;19.50;74.70
16118;DHT22;8163;50.118;5.342;2022-07-24T01:50:43;19.40;75.00
16118;DHT22;8163;50.118;5.342;2022-07-24T01:53:10;19.40;75.20
16118;DHT22;8163;50.118;5.342;2022-07-24T01:55:39;19.40;75.40
16118;DHT22;8163;50.118;5.342;2022-07-24T01:58:06;19.30;75.50
16118;DHT22;8163;50.118;5.342;2022-07-24T02:00:33;19.30;75.40
16118;DHT22;8163;50.118;5.342;2022-07-24T02:03:01;19.20;75.40
16118;DHT22;8163;50.118;5.342;2022-07-24T02:05:28;19.20;75.60
16118;DHT22;8163;50.118;5.342;2022-07-24T02:07:58;19.20;75.80
16118;DHT22;8163;50.118;5.342;2022-07-24T02:10:26;19.20;76.00
16118;DHT22;8163;50.118;5.342;2022-07-24T02:12:55;19.10;76.00
16118;DHT22;8163;50.118;5.342;2022-07-24T02:15:23;19.10;76.10
16118;DHT22;8163;50.118;5.342;2022-07-24T02:17:52;19.00;75.90
16118;DHT22;8163;50.118;5.342;2022-07-24T02:20:19;19.00;76.30
16118;DHT22;8163;50.118;5.342;2022-07-24T02:22:47;19.00;76.40
16118;DHT22;8163;50.118;5.342;2022-07-24T02:25:15;18.90;76.50
16118;DHT22;8163;50.118;5.342;2022-07-24T02:27:42;18.90;76.70
16118;DHT22;8163;50.118;5.342;2022-07-24T02:30:13;18.90;76.90
16118;DHT22;8163;50.118;5.342;2022-07-24T02:32:41;18.90;77.00
16118;DHT22;8163;50.118;5.342;2022-07-24T02:35:09;18.90;77.20
16118;DHT22;8163;50.118;5.342;2022-07-24T02:37:37;18.90;77.20
16118;DHT22;8163;50.118;5.342;2022-07-24T02:40:06;18.90;77.30
16118;DHT22;8163;50.118;5.342;2022-07-24T02:42:35;18.90;77.40
16118;DHT22;8163;50.118;5.342;2022-07-24T02:45:03;18.90;77.60
16118;DHT22;8163;50.118;5.342;2022-07-24T02:47:31;18.90;77.50
16118;DHT22;8163;50.118;5.342;2022-07-24T02:49:59;18.90;77.60
16118;DHT22;8163;50.118;5.342;2022-07-24T02:52:26;18.90;77.50
16118;DHT22;8163;50.118;5.342;2022-07-24T02:54:54;18.90;77.30
16118;DHT22;8163;50.118;5.342;2022-07-24T02:57:21;18.90;77.40
16118;DHT22;8163;50.118;5.342;2022-07-24T02:59:48;18.80;77.40
16118;DHT22;8163;50.118;5.342;2022-07-24T03:02:18;18.80;77.70
16118;DHT22;8163;50.118;5.342;2022-07-24T03:04:47;18.80;77.80
16118;DHT22;8163;50.118;5.342;2022-07-24T03:07:15;18.70;77.80
16118;DHT22;8163;50.118;5.342;2022-07-24T03:09:42;18.70;77.70
16118;DHT22;8163;50.118;5.342;2022-07-24T03:12:09;18.70;77.80
16118;DHT22;8163;50.118;5.342;2022-07-24T03:14:37;18.60;77.70
16118;DHT22;8163;50.118;5.342;2022-07-24T03:17:05;18.70;78.00
16118;DHT22;8163;50.118;5.342;2022-07-24T03:19:33;18.70;78.00
16118;DHT22;8163;50.118;5.342;2022-07-24T03:22:01;18.60;78.00
16118;DHT22;8163;50.118;5.342;2022-07-24T03:24:29;18.60;78.00
16118;DHT22;8163;50.118;5.342;2022-07-24T03:26:56;18.70;78.10
16118;DHT22;8163;50.118;5.342;2022-07-24T03:29:23;18.60;78.10
16118;DHT22;8163;50.118;5.342;2022-07-24T03:31:50;18.60;78.10
16118;DHT22;8163;50.118;5.342;2022-07-24T03:34:17;18.60;78.10
16118;DHT22;8163;50.118;5.342;2022-07-24T03:36:44;18.50;78.10
16118;DHT22;8163;50.118;5.342;2022-07-24T03:39:13;18.50;78.20
16118;DHT22;8163;50.118;5.342;2022-07-24T03:41:40;18.50;78.30
16118;DHT22;8163;50.118;5.342;2022-07-24T03:44:07;18.40;78.40
16118;DHT22;8163;50.118;5.342;2022-07-24T03:46:34;18.30;78.50
16118;DHT22;8163;50.118;5.342;2022-07-24T03:49:02;18.30;78.70
16118;DHT22;8163;50.118;5.342;2022-07-24T03:51:29;18.30;78.80
16118;DHT22;8163;50.118;5.342;2022-07-24T03:53:56;18.30;79.10
16118;DHT22;8163;50.118;5.342;2022-07-24T03:56:24;18.30;79.20
16118;DHT22;8163;50.118;5.342;2022-07-24T03:58:51;18.30;79.20
16118;DHT22;8163;50.118;5.342;2022-07-24T04:01:19;18.30;79.30
16118;DHT22;8163;50.118;5.342;2022-07-24T04:03:47;18.30;79.40
16118;DHT22;8163;50.118;5.342;2022-07-24T04:06:14;18.30;79.50
16118;DHT22;8163;50.118;5.342;2022-07-24T04:08:41;18.30;79.50
16118;DHT22;8163;50.118;5.342;2022-07-24T04:11:08;18.40;79.90
16118;DHT22;8163;50.118;5.342;2022-07-24T04:13:37;18.30;79.80
16118;DHT22;8163;50.118;5.342;2022-07-24T04:16:05;18.40;80.00
16118;DHT22;8163;50.118;5.342;2022-07-24T04:18:32;18.30;80.00
16118;DHT22;8163;50.118;5.342;2022-07-24T04:20:59;18.40;80.20
16118;DHT22;8163;50.118;5.342;2022-07-24T04:23:26;18.40;80.00
16118;DHT22;8163;50.118;5.342;2022-07-24T04:25:53;18.40;80.10
16118;DHT22;8163;50.118;5.342;2022-07-24T04:28:20;18.40;80.40
16118;DHT22;8163;50.118;5.342;2022-07-24T04:30:49;18.40;80.60
16118;DHT22;8163;50.118;5.342;2022-07-24T04:33:16;18.40;80.80
16118;DHT22;8163;50.118;5.342;2022-07-24T04:35:43;18.40;80.80
16118;DHT22;8163;50.118;5.342;2022-07-24T04:38:11;18.50;81.10
16118;DHT22;8163;50.118;5.342;2022-07-24T04:40:39;18.50;81.30
16118;DHT22;8163;50.118;5.342;2022-07-24T04:43:06;18.60;81.60
16118;DHT22;8163;50.118;5.342;2022-07-24T04:45:34;18.70;81.70
16118;DHT22;8163;50.118;5.342;2022-07-24T04:48:03;19.00;81.90
16118;DHT22;8163;50.118;5.342;2022-07-24T04:50:30;19.20;81.90
16118;DHT22;8163;50.118;5.342;2022-07-24T04:52:57;19.40;81.70
16118;DHT22;8163;50.118;5.342;2022-07-24T04:55:24;19.50;81.70
16118;DHT22;8163;50.118;5.342;2022-07-24T04:57:52;19.50;81.40
16118;DHT22;8163;50.118;5.342;2022-07-24T05:00:19;19.60;81.60
16118;DHT22;8163;50.118;5.342;2022-07-24T05:02:46;19.70;81.60
16118;DHT22;8163;50.118;5.342;2022-07-24T05:05:15;20.20;81.50
16118;DHT22;8163;50.118;5.342;2022-07-24T05:07:42;20.60;81.20
16118;DHT22;8163;50.118;5.342;2022-07-24T05:10:09;20.80;80.90
16118;DHT22;8163;50.118;5.342;2022-07-24T05:12:36;21.20;80.50
16118;DHT22;8163;50.118;5.342;2022-07-24T05:15:05;22.30;80.00
16118;DHT22;8163;50.118;5.342;2022-07-24T05:17:33;23.40;78.70
16118;DHT22;8163;50.118;5.342;2022-07-24T05:20:01;24.00;77.50
16118;DHT22;8163;50.118;5.342;2022-07-24T05:22:30;24.40;77.00
16118;DHT22;8163;50.118;5.342;2022-07-24T05:24:57;24.90;75.90
16118;DHT22;8163;50.118;5.342;2022-07-24T05:27:25;25.10;75.00
16118;DHT22;8163;50.118;5.342;2022-07-24T05:29:52;25.20;74.80
16118;DHT22;8163;50.118;5.342;2022-07-24T05:32:19;25.60;74.00
16118;DHT22;8163;50.118;5.342;2022-07-24T05:34:46;26.40;72.60
16118;DHT22;8163;50.118;5.342;2022-07-24T05:37:13;27.10;71.40
16118;DHT22;8163;50.118;5.342;2022-07-24T05:39:42;27.60;70.30
16118;DHT22;8163;50.118;5.342;2022-07-24T05:42:09;28.30;68.80
16118;DHT22;8163;50.118;5.342;2022-07-24T05:44:36;29.10;67.60
16118;DHT22;8163;50.118;5.342;2022-07-24T05:47:05;29.70;66.20
16118;DHT22;8163;50.118;5.342;2022-07-24T05:49:32;30.00;64.80
16118;DHT22;8163;50.118;5.342;2022-07-24T05:51:59;30.40;63.70
16118;DHT22;8163;50.118;5.342;2022-07-24T05:54:28;30.90;62.60
16118;DHT22;8163;50.118;5.342;2022-07-24T05:56:57;31.40;61.40
16118;DHT22;8163;50.118;5.342;2022-07-24T05:59:24;31.80;60.00
16118;DHT22;8163;50.118;5.342;2022-07-24T06:01:51;32.10;59.20
16118;DHT22;8163;50.118;5.342;2022-07-24T06:04:19;32.40;58.40
16118;DHT22;8163;50.118;5.342;2022-07-24T06:06:47;32.60;57.40
16118;DHT22;8163;50.118;5.342;2022-07-24T06:09:15;32.80;56.60
16118;DHT22;8163;50.118;5.342;2022-07-24T06:11:42;33.00;55.90
16118;DHT22;8163;50.118;5.342;2022-07-24T06:14:11;33.40;55.40
16118;DHT22;8163;50.118;5.342;2022-07-24T06:16:39;33.60;54.60
16118;DHT22;8163;50.118;5.342;2022-07-24T06:19:06;33.90;54.30
16118;DHT22;8163;50.118;5.342;2022-07-24T06:21:34;34.20;53.60
16118;DHT22;8163;50.118;5.342;2022-07-24T06:24:02;34.50;52.90
16118;DHT22;8163;50.118;5.342;2022-07-24T06:26:29;34.70;52.20
16118;DHT22;8163;50.118;5.342;2022-07-24T06:28:57;34.90;51.70
16118;DHT22;8163;50.118;5.342;2022-07-24T06:31:25;35.20;51.40
16118;DHT22;8163;50.118;5.342;2022-07-24T06:33:53;35.40;51.20
16118;DHT22;8163;50.118;5.342;2022-07-24T06:36:27;35.60;50.50
16118;DHT22;8163;50.118;5.342;2022-07-24T06:39:04;35.90;49.90
16118;DHT22;8163;50.118;5.342;2022-07-24T06:41:34;36.20;49.50
16118;DHT22;8163;50.118;5.342;2022-07-24T06:44:01;36.40;49.00
16118;DHT22;8163;50.118;5.342;2022-07-24T06:46:30;36.60;48.70
16118;DHT22;8163;50.118;5.342;2022-07-24T06:48:57;36.80;48.10
16118;DHT22;8163;50.118;5.342;2022-07-24T06:51:25;37.00;47.80
16118;DHT22;8163;50.118;5.342;2022-07-24T06:53:52;37.20;47.50
16118;DHT22;8163;50.118;5.342;2022-07-24T06:56:19;37.30;47.00
16118;DHT22;8163;50.118;5.342;2022-07-24T06:58:48;37.40;46.60
16118;DHT22;8163;50.118;5.342;2022-07-24T07:01:17;37.60;46.40
16118;DHT22;8163;50.118;5.342;2022-07-24T07:03:55;37.70;46.10
16118;DHT22;8163;50.118;5.342;2022-07-24T07:06:23;37.80;45.90
16118;DHT22;8163;50.118;5.342;2022-07-24T07:08:51;37.90;45.90
16118;DHT22;8163;50.118;5.342;2022-07-24T07:11:18;38.00;45.80
16118;DHT22;8163;50.118;5.342;2022-07-24T07:13:45;38.20;45.40
16118;DHT22;8163;50.118;5.342;2022-07-24T07:16:16;38.50;45.10
16118;DHT22;8163;50.118;5.342;2022-07-24T07:18:45;38.70;44.30
16118;DHT22;8163;50.118;5.342;2022-07-24T07:21:28;38.90;43.90
16118;DHT22;8163;50.118;5.342;2022-07-24T07:23:55;39.00;43.20
16118;DHT22;8163;50.118;5.342;2022-07-24T07:26:22;39.00;43.20
16118;DHT22;8163;50.118;5.342;2022-07-24T07:28:49;39.10;42.70
16118;DHT22;8163;50.118;5.342;2022-07-24T07:31:17;39.20;42.40
16118;DHT22;8163;50.118;5.342;2022-07-24T07:33:44;39.20;42.10
16118;DHT22;8163;50.118;5.342;2022-07-24T07:36:11;39.10;41.80
16118;DHT22;8163;50.118;5.342;2022-07-24T07:38:43;39.10;42.00
16118;DHT22;8163;50.118;5.342;2022-07-24T07:41:11;39.10;41.50
16118;DHT22;8163;50.118;5.342;2022-07-24T07:43:39;39.20;41.60
16118;DHT22;8163;50.118;5.342;2022-07-24T07:46:16;39.40;41.60
16118;DHT22;8163;50.118;5.342;2022-07-24T07:48:44;39.50;41.10
16118;DHT22;8163;50.118;5.342;2022-07-24T07:51:11;39.40;40.90
16118;DHT22;8163;50.118;5.342;2022-07-24T07:53:55;39.30;40.80
16118;DHT22;8163;50.118;5.342;2022-07-24T07:56:23;39.20;40.80
16118;DHT22;8163;50.118;5.342;2022-07-24T07:58:50;39.10;40.80
16118;DHT22;8163;50.118;5.342;2022-07-24T08:01:18;38.90;40.90
16118;DHT22;8163;50.118;5.342;2022-07-24T08:03:45;38.90;40.80
16118;DHT22;8163;50.118;5.342;2022-07-24T08:06:12;38.80;40.90
16118;DHT22;8163;50.118;5.342;2022-07-24T08:08:39;38.10;41.20
16118;DHT22;8163;50.118;5.342;2022-07-24T08:11:09;38.10;41.40
16118;DHT22;8163;50.118;5.342;2022-07-24T08:13:36;38.40;41.30
16118;DHT22;8163;50.118;5.342;2022-07-24T08:16:05;38.50;41.00
16118;DHT22;8163;50.118;5.342;2022-07-24T08:18:32;38.60;40.90
16118;DHT22;8163;50.118;5.342;2022-07-24T08:20:59;38.20;41.20
16118;DHT22;8163;50.118;5.342;2022-07-24T08:23:26;38.10;41.30
16118;DHT22;8163;50.118;5.342;2022-07-24T08:25:54;38.00;41.50
16118;DHT22;8163;50.118;5.342;2022-07-24T08:28:25;37.80;42.50
16118;DHT22;8163;50.118;5.342;2022-07-24T08:30:52;38.40;42.20
16118;DHT22;8163;50.118;5.342;2022-07-24T08:33:20;38.80;42.00
16118;DHT22;8163;50.118;5.342;2022-07-24T08:35:48;39.20;41.80
16118;DHT22;8163;50.118;5.342;2022-07-24T08:38:15;39.30;41.70
16118;DHT22;8163;50.118;5.342;2022-07-24T08:40:42;39.50;41.20
16118;DHT22;8163;50.118;5.342;2022-07-24T08:43:12;39.50;40.70
16118;DHT22;8163;50.118;5.342;2022-07-24T08:45:42;39.50;40.70
16118;DHT22;8163;50.118;5.342;2022-07-24T08:48:11;39.40;40.80
16118;DHT22;8163;50.118;5.342;2022-07-24T08:50:40;39.60;40.90
16118;DHT22;8163;50.118;5.342;2022-07-24T08:53:07;39.70;40.60
16118;DHT22;8163;50.118;5.342;2022-07-24T08:55:36;39.60;40.50
16118;DHT22;8163;50.118;5.342;2022-07-24T08:58:04;39.50;40.10
16118;DHT22;8163;50.118;5.342;2022-07-24T09:00:33;39.30;40.10
16118;DHT22;8163;50.118;5.342;2022-07-24T09:03:02;39.20;39.70
16118;DHT22;8163;50.118;5.342;2022-07-24T09:05:30;38.60;39.60
16118;DHT22;8163;50.118;5.342;2022-07-24T09:08:08;38.60;39.90
16118;DHT22;8163;50.118;5.342;2022-07-24T09:47:33;37.70;42.00
16118;DHT22;8163;50.118;5.342;2022-07-24T09:50:11;37.90;41.80
16118;DHT22;8163;50.118;5.342;2022-07-24T09:52:40;38.10;41.30
16118;DHT22;8163;50.118;5.342;2022-07-24T09:55:20;38.00;40.90
16118;DHT22;8163;50.118;5.342;2022-07-24T09:57:49;38.00;40.70
16118;DHT22;8163;50.118;5.342;2022-07-24T10:00:30;38.00;40.50
16118;DHT22;8163;50.118;5.342;2022-07-24T10:03:23;37.80;39.80
16118;DHT22;8163;50.118;5.342;2022-07-24T10:05:54;37.70;39.50
16118;DHT22;8163;50.118;5.342;2022-07-24T10:08:24;37.40;39.30
16118;DHT22;8163;50.118;5.342;2022-07-24T10:10:53;37.30;39.10
16118;DHT22;8163;50.118;5.342;2022-07-24T10:13:21;37.00;39.10
16118;DHT22;8163;50.118;5.342;2022-07-24T10:15:53;37.10;39.80
16118;DHT22;8163;50.118;5.342;2022-07-24T10:18:27;37.20;39.30
16118;DHT22;8163;50.118;5.342;2022-07-24T10:21:05;36.90;39.20
16118;DHT22;8163;50.118;5.342;2022-07-24T10:23:43;36.90;39.40
16118;DHT22;8163;50.118;5.342;2022-07-24T10:26:19;36.80;39.40
16118;DHT22;8163;50.118;5.342;2022-07-24T10:28:53;36.80;39.50
16118;DHT22;8163;50.118;5.342;2022-07-24T10:31:29;36.70;39.40
16118;DHT22;8163;50.118;5.342;2022-07-24T10:34:05;36.90;39.60
16118;DHT22;8163;50.118;5.342;2022-07-24T10:36:38;37.00;39.00
16118;DHT22;8163;50.118;5.342;2022-07-24T10:39:11;36.40;38.70
16118;DHT22;8163;50.118;5.342;2022-07-24T10:41:40;36.20;39.10
16118;DHT22;8163;50.118;5.342;2022-07-24T10:44:15;36.30;39.10
16118;DHT22;8163;50.118;5.342;2022-07-24T10:47:03;36.20;38.60
16118;DHT22;8163;50.118;5.342;2022-07-24T10:49:40;36.20;38.90
16118;DHT22;8163;50.118;5.342;2022-07-24T10:52:09;36.30;38.60
16118;DHT22;8163;50.118;5.342;2022-07-24T10:54:37;36.30;38.40
16118;DHT22;8163;50.118;5.342;2022-07-24T10:57:07;36.10;38.50
16118;DHT22;8163;50.118;5.342;2022-07-24T10:59:35;36.20;39.00
16118;DHT22;8163;50.118;5.342;2022-07-24T11:02:26;36.50;38.50
16118;DHT22;8163;50.118;5.342;2022-07-24T11:05:26;36.60;37.90
16118;DHT22;8163;50.118;5.342;2022-07-24T11:08:26;36.40;37.70
16118;DHT22;8163;50.118;5.342;2022-07-24T11:10:59;36.60;37.80
16118;DHT22;8163;50.118;5.342;2022-07-24T11:13:50;36.70;37.70
16118;DHT22;8163;50.118;5.342;2022-07-24T11:16:26;36.70;37.70
16118;DHT22;8163;50.118;5.342;2022-07-24T11:19:28;36.60;37.30
16118;DHT22;8163;50.118;5.342;2022-07-24T11:22:19;36.40;37.20
16118;DHT22;8163;50.118;5.342;2022-07-24T11:25:13;36.00;37.70
16118;DHT22;8163;50.118;5.342;2022-07-24T11:27:46;36.10;38.00
16118;DHT22;8163;50.118;5.342;2022-07-24T11:30:14;36.40;37.80
16118;DHT22;8163;50.118;5.342;2022-07-24T11:32:43;36.40;37.50
16118;DHT22;8163;50.118;5.342;2022-07-24T11:35:11;36.80;37.50
16118;DHT22;8163;50.118;5.342;2022-07-24T11:37:41;36.70;36.70
16118;DHT22;8163;50.118;5.342;2022-07-24T11:40:14;36.60;36.60
16118;DHT22;8163;50.118;5.342;2022-07-24T11:42:54;36.40;36.50
16118;DHT22;8163;50.118;5.342;2022-07-24T11:45:21;36.40;36.90
16118;DHT22;8163;50.118;5.342;2022-07-24T11:47:48;36.50;37.00
16118;DHT22;8163;50.118;5.342;2022-07-24T11:50:20;36.60;36.80
16118;DHT22;8163;50.118;5.342;2022-07-24T11:52:50;36.70;36.40
16118;DHT22;8163;50.118;5.342;2022-07-24T11:55:25;36.80;36.10
16118;DHT22;8163;50.118;5.342;2022-07-24T11:58:00;36.80;36.10
16118;DHT22;8163;50.118;5.342;2022-07-24T12:00:31;36.70;36.30
16118;DHT22;8163;50.118;5.342;2022-07-24T12:03:06;36.50;36.40
16118;DHT22;8163;50.118;5.342;2022-07-24T12:05:40;36.30;36.70
16118;DHT22;8163;50.118;5.342;2022-07-24T12:08:22;36.20;37.10
16118;DHT22;8163;50.118;5.342;2022-07-24T12:10:56;36.10;37.10
16118;DHT22;8163;50.118;5.342;2022-07-24T12:13:24;36.10;37.30
16118;DHT22;8163;50.118;5.342;2022-07-24T12:15:51;36.10;37.30
16118;DHT22;8163;50.118;5.342;2022-07-24T12:18:18;35.90;37.10
16118;DHT22;8163;50.118;5.342;2022-07-24T12:20:46;36.00;37.20
16118;DHT22;8163;50.118;5.342;2022-07-24T12:23:16;36.00;37.00
16118;DHT22;8163;50.118;5.342;2022-07-24T12:25:44;36.10;36.30
16118;DHT22;8163;50.118;5.342;2022-07-24T12:28:14;36.00;36.30
16118;DHT22;8163;50.118;5.342;2022-07-24T12:30:42;36.00;36.40
16118;DHT22;8163;50.118;5.342;2022-07-24T12:33:21;36.10;36.70
16118;DHT22;8163;50.118;5.342;2022-07-24T12:35:54;36.30;36.90
16118;DHT22;8163;50.118;5.342;2022-07-24T12:38:28;36.50;37.00
16118;DHT22;8163;50.118;5.342;2022-07-24T12:41:06;36.60;36.70
16118;DHT22;8163;50.118;5.342;2022-07-24T12:43:39;36.50;36.20
16118;DHT22;8163;50.118;5.342;2022-07-24T12:46:12;36.30;36.20
16118;DHT22;8163;50.118;5.342;2022-07-24T12:48:39;36.30;36.60
16118;DHT22;8163;50.118;5.342;2022-07-24T12:51:08;35.90;36.30
16118;DHT22;8163;50.118;5.342;2022-07-24T12:53:40;35.80;36.50
16118;DHT22;8163;50.118;5.342;2022-07-24T12:56:11;35.50;36.70
16118;DHT22;8163;50.118;5.342;2022-07-24T12:58:54;35.40;36.80
16118;DHT22;8163;50.118;5.342;2022-07-24T13:01:22;35.50;37.00
16118;DHT22;8163;50.118;5.342;2022-07-24T13:03:52;35.40;36.80
16118;DHT22;8163;50.118;5.342;2022-07-24T13:06:33;35.50;36.70
16118;DHT22;8163;50.118;5.342;2022-07-24T13:09:03;35.30;36.30
16118;DHT22;8163;50.118;5.342;2022-07-24T13:11:31;35.10;36.50
16118;DHT22;8163;50.118;5.342;2022-07-24T13:13:58;34.80;36.50
16118;DHT22;8163;50.118;5.342;2022-07-24T13:16:33;34.70;36.60
16118;DHT22;8163;50.118;5.342;2022-07-24T13:19:00;34.60;37.00
16118;DHT22;8163;50.118;5.342;2022-07-24T13:21:28;34.60;37.20
16118;DHT22;8163;50.118;5.342;2022-07-24T13:23:55;34.50;37.30
16118;DHT22;8163;50.118;5.342;2022-07-24T13:26:24;34.50;37.40
16118;DHT22;8163;50.118;5.342;2022-07-24T13:28:52;34.20;37.50
16118;DHT22;8163;50.118;5.342;2022-07-24T13:31:19;34.10;37.50
16118;DHT22;8163;50.118;5.342;2022-07-24T13:33:47;33.80;37.40
16118;DHT22;8163;50.118;5.342;2022-07-24T13:36:17;33.50;37.80
16118;DHT22;8163;50.118;5.342;2022-07-24T13:38:45;33.60;38.20
16118;DHT22;8163;50.118;5.342;2022-07-24T13:41:13;33.60;38.20
16118;DHT22;8163;50.118;5.342;2022-07-24T13:43:44;33.50;38.40
16118;DHT22;8163;50.118;5.342;2022-07-24T13:46:13;33.50;38.80
16118;DHT22;8163;50.118;5.342;2022-07-24T13:48:40;33.30;38.90
16118;DHT22;8163;50.118;5.342;2022-07-24T13:51:07;33.00;39.10
16118;DHT22;8163;50.118;5.342;2022-07-24T13:53:35;32.90;39.60
16118;DHT22;8163;50.118;5.342;2022-07-24T13:56:04;32.60;40.00
16118;DHT22;8163;50.118;5.342;2022-07-24T13:58:32;32.40;40.60
16118;DHT22;8163;50.118;5.342;2022-07-24T14:01:03;32.40;40.70
16118;DHT22;8163;50.118;5.342;2022-07-24T14:03:31;32.50;40.90
16118;DHT22;8163;50.118;5.342;2022-07-24T14:05:59;32.50;41.00
16118;DHT22;8163;50.118;5.342;2022-07-24T14:08:27;32.40;41.00
16118;DHT22;8163;50.118;5.342;2022-07-24T14:10:55;32.40;41.10
16118;DHT22;8163;50.118;5.342;2022-07-24T14:13:22;32.30;41.20
16118;DHT22;8163;50.118;5.342;2022-07-24T14:15:49;32.30;41.30
16118;DHT22;8163;50.118;5.342;2022-07-24T14:18:19;32.30;41.30
16118;DHT22;8163;50.118;5.342;2022-07-24T14:20:46;31.90;41.60
16118;DHT22;8163;50.118;5.342;2022-07-24T14:23:14;31.60;41.60
16118;DHT22;8163;50.118;5.342;2022-07-24T14:25:42;31.50;41.70
16118;DHT22;8163;50.118;5.342;2022-07-24T14:28:09;31.50;41.90
16118;DHT22;8163;50.118;5.342;2022-07-24T14:30:37;31.50;42.00
16118;DHT22;8163;50.118;5.342;2022-07-24T14:33:05;31.40;42.20
16118;DHT22;8163;50.118;5.342;2022-07-24T14:35:34;31.10;43.20
16118;DHT22;8163;50.118;5.342;2022-07-24T14:38:02;31.10;43.00
16118;DHT22;8163;50.118;5.342;2022-07-24T14:40:29;31.20;43.20
16118;DHT22;8163;50.118;5.342;2022-07-24T14:42:57;31.20;43.30
16118;DHT22;8163;50.118;5.342;2022-07-24T14:45:24;31.10;43.40
16118;DHT22;8163;50.118;5.342;2022-07-24T14:47:51;31.00;43.80
16118;DHT22;8163;50.118;5.342;2022-07-24T14:50:18;31.00;44.10
16118;DHT22;8163;50.118;5.342;2022-07-24T14:52:47;31.00;44.60
16118;DHT22;8163;50.118;5.342;2022-07-24T14:55:14;31.00;44.40
16118;DHT22;8163;50.118;5.342;2022-07-24T14:57:41;31.00;44.40
16118;DHT22;8163;50.118;5.342;2022-07-24T15:00:12;30.90;44.30
16118;DHT22;8163;50.118;5.342;2022-07-24T15:02:43;30.80;44.20
16118;DHT22;8163;50.118;5.342;2022-07-24T15:05:12;30.80;44.30
16118;DHT22;8163;50.118;5.342;2022-07-24T15:07:39;30.70;44.50
16118;DHT22;8163;50.118;5.342;2022-07-24T15:10:08;30.70;44.60
16118;DHT22;8163;50.118;5.342;2022-07-24T15:12:35;30.70;44.70
16118;DHT22;8163;50.118;5.342;2022-07-24T15:15:03;30.70;44.60
16118;DHT22;8163;50.118;5.342;2022-07-24T15:17:30;30.70;44.70
16118;DHT22;8163;50.118;5.342;2022-07-24T15:19:57;30.60;44.80
16118;DHT22;8163;50.118;5.342;2022-07-24T15:22:24;30.60;44.90
16118;DHT22;8163;50.118;5.342;2022-07-24T15:24:54;30.60;45.00
16118;DHT22;8163;50.118;5.342;2022-07-24T15:27:22;30.50;45.00
16118;DHT22;8163;50.118;5.342;2022-07-24T15:29:51;30.40;45.00
16118;DHT22;8163;50.118;5.342;2022-07-24T15:32:19;30.40;44.70
16118;DHT22;8163;50.118;5.342;2022-07-24T15:34:46;30.30;44.50
16118;DHT22;8163;50.118;5.342;2022-07-24T15:37:17;30.30;44.40
16118;DHT22;8163;50.118;5.342;2022-07-24T15:39:44;30.30;44.50
16118;DHT22;8163;50.118;5.342;2022-07-24T15:42:11;30.20;44.50
16118;DHT22;8163;50.118;5.342;2022-07-24T15:44:40;30.10;44.40
16118;DHT22;8163;50.118;5.342;2022-07-24T15:47:07;30.10;44.40
16118;DHT22;8163;50.118;5.342;2022-07-24T15:49:37;30.10;44.60
16118;DHT22;8163;50.118;5.342;2022-07-24T15:52:05;30.00;44.70
16118;DHT22;8163;50.118;5.342;2022-07-24T15:54:32;30.00;44.70
16118;DHT22;8163;50.118;5.342;2022-07-24T15:56:59;30.00;44.90
16118;DHT22;8163;50.118;5.342;2022-07-24T15:59:29;29.90;45.00
16118;DHT22;8163;50.118;5.342;2022-07-24T16:02:01;29.90;45.10
16118;DHT22;8163;50.118;5.342;2022-07-24T16:04:28;29.90;45.20
16118;DHT22;8163;50.118;5.342;2022-07-24T16:06:56;29.80;45.20
16118;DHT22;8163;50.118;5.342;2022-07-24T16:09:26;29.80;45.40
16118;DHT22;8163;50.118;5.342;2022-07-24T16:11:53;29.70;45.40
16118;DHT22;8163;50.118;5.342;2022-07-24T16:14:20;29.70;45.50
16118;DHT22;8163;50.118;5.342;2022-07-24T16:16:48;29.60;45.60
16118;DHT22;8163;50.118;5.342;2022-07-24T16:19:16;29.60;45.60
16118;DHT22;8163;50.118;5.342;2022-07-24T16:21:44;29.60;45.70
16118;DHT22;8163;50.118;5.342;2022-07-24T16:24:12;29.60;45.70
16118;DHT22;8163;50.118;5.342;2022-07-24T16:26:39;29.60;45.90
16118;DHT22;8163;50.118;5.342;2022-07-24T16:29:07;29.60;45.90
16118;DHT22;8163;50.118;5.342;2022-07-24T16:31:34;29.60;46.00
16118;DHT22;8163;50.118;5.342;2022-07-24T16:34:01;29.60;46.10
16118;DHT22;8163;50.118;5.342;2022-07-24T16:36:29;29.60;46.20